createdAt,value
2022-10-23T00:06:21.098Z,74746.84
2022-10-23T00:16:27.596Z,74744.81
2022-10-23T00:26:31.826Z,74750.88
2022-10-23T00:36:39.085Z,74750.88
2022-10-23T00:46:42.274Z,74758.97
2022-10-23T00:56:47.067Z,74756.94
2022-10-23T01:07:15.392Z,74767.06
2022-10-23T01:17:51.889Z,74771.09
2022-10-23T01:28:03.433Z,74775.16
2022-10-23T01:38:29.016Z,74771.09
2022-10-23T01:48:34.895Z,74761.00
2022-10-23T01:58:40.477Z,74763.03
2022-10-23T02:08:43.373Z,74767.06
2022-10-23T02:19:13.206Z,74763.03
2022-10-23T02:29:42.874Z,74771.09
2022-10-23T02:39:48.501Z,74767.06
2022-10-23T02:49:55.244Z,74779.19
2022-10-23T03:00:15.282Z,74779.19
2022-10-23T03:10:21.097Z,74775.16
2022-10-23T03:20:25.022Z,74773.13
2022-10-23T03:30:31.853Z,74783.25
2022-10-23T03:40:34.112Z,74783.25
2022-10-23T03:50:36.468Z,74809.56
2022-10-23T04:00:40.894Z,74815.63
2022-10-23T04:10:43.581Z,74823.72
2022-10-23T04:20:49.530Z,74821.69
2022-10-23T04:30:51.742Z,74831.81
2022-10-23T04:40:53.808Z,74845.97
2022-10-23T04:51:02.160Z,74854.06
2022-10-23T05:01:25.149Z,74866.22
2022-10-23T05:11:31.534Z,74874.31
2022-10-23T05:21:35.684Z,74888.47
2022-10-23T05:31:40.876Z,74884.41
2022-10-23T05:41:50.193Z,74900.59
2022-10-23T05:51:59.474Z,74908.69
2022-10-23T06:02:16.453Z,74904.66
2022-10-23T06:12:35.838Z,74908.69
2022-10-23T06:22:42.977Z,74920.84
2022-10-23T06:33:06.542Z,74932.97
2022-10-23T06:43:12.333Z,74900.59
2022-10-23T06:53:32.962Z,74852.03
2022-10-23T07:03:44.537Z,74858.13
2022-10-23T07:13:47.143Z,74858.13
2022-10-23T07:23:53.511Z,74845.97
2022-10-23T07:33:56.241Z,74827.75
2022-10-23T07:44:01.522Z,74813.59
2022-10-23T07:54:07.836Z,74793.38
2022-10-23T08:04:36.111Z,74744.81
2022-10-23T08:14:48.725Z,74726.59
2022-10-23T08:24:51.365Z,74714.47
2022-10-23T08:34:59.325Z,74686.13
2022-10-23T08:45:17.557Z,74690.19
2022-10-23T08:55:23.288Z,74674.00
2022-10-23T09:05:33.126Z,74649.72
2022-10-23T09:15:36.142Z,74617.34
2022-10-23T09:25:41.173Z,74613.28
2022-10-23T09:36:03.867Z,74589.00
2022-10-23T09:46:12.265Z,74580.94
2022-10-23T10:07:23.896Z,74536.41
2022-10-23T10:17:31.846Z,74528.31
2022-10-23T10:28:20.968Z,74528.31
2022-10-23T10:38:51.080Z,74548.56
2022-10-23T10:49:10.517Z,74544.50
2022-10-23T10:59:32.756Z,74433.22
2022-10-23T11:09:35.948Z,74477.75
2022-10-23T11:20:06.920Z,74530.34
2022-10-23T11:30:21.890Z,74548.56
2022-10-23T11:40:27.323Z,74544.50
2022-10-23T11:50:59.146Z,74536.41
2022-10-23T12:01:36.238Z,74479.75
2022-10-23T12:11:48.279Z,74433.22
2022-10-23T12:22:02.637Z,74366.47
2022-10-23T12:32:30.485Z,74366.47
2022-10-23T12:42:34.905Z,74366.47
2022-10-23T12:52:40.382Z,74404.91
2022-10-23T13:02:46.845Z,74475.72
2022-10-23T13:12:55.407Z,74487.84
2022-10-23T13:23:19.374Z,74514.16
2022-10-23T13:33:22.291Z,74524.28
2022-10-23T13:43:28.145Z,74532.38
2022-10-23T13:53:33.312Z,74544.50
2022-10-23T14:03:36.514Z,74558.66
2022-10-23T14:13:45.422Z,74552.59
2022-10-23T14:23:48.524Z,74560.69
2022-10-23T14:33:58.814Z,74584.97
2022-10-23T14:44:07.649Z,74601.16
2022-10-23T14:54:18.006Z,74615.31
2022-10-23T15:04:29.900Z,74619.38
2022-10-23T15:14:34.984Z,74623.41
2022-10-23T15:24:39.660Z,74653.75
2022-10-23T15:34:43.004Z,74641.63
2022-10-23T15:44:47.866Z,74653.75
2022-10-23T15:54:50.033Z,74665.91
2022-10-23T16:04:52.147Z,74667.91
2022-10-23T16:14:55.242Z,74665.91
2022-10-23T16:24:59.633Z,74674.00
2022-10-23T16:35:09.786Z,74682.09
2022-10-23T16:45:34.448Z,74696.25
2022-10-23T16:55:44.566Z,74708.38
2022-10-23T17:05:46.860Z,74722.56
2022-10-23T17:15:51.481Z,74726.59
2022-10-23T17:25:54.192Z,74744.81
2022-10-23T17:36:03.725Z,74744.81
2022-10-23T17:46:06.911Z,74761.00
2022-10-23T17:56:13.212Z,74752.91
2022-10-23T18:06:23.362Z,74754.94
2022-10-23T18:16:28.857Z,74761.00
2022-10-23T18:26:39.348Z,74767.06
2022-10-23T18:36:44.161Z,74791.34
2022-10-23T18:46:48.304Z,74815.63
2022-10-23T18:56:54.849Z,74793.38
2022-10-23T19:07:04.138Z,74799.44
2022-10-23T19:17:21.737Z,74817.66
2022-10-23T19:27:28.716Z,74845.97
2022-10-23T19:37:30.936Z,74856.09
2022-10-23T19:47:34.575Z,74864.19
2022-10-23T19:57:38.860Z,74864.19
2022-10-23T20:07:41.090Z,74876.31
2022-10-23T20:17:43.290Z,74872.28
2022-10-23T20:27:47.771Z,74880.38
2022-10-23T20:37:55.911Z,74888.47
2022-10-23T20:48:00.301Z,74888.47
2022-10-23T20:58:04.785Z,74886.44
2022-10-23T21:08:09.318Z,74890.50
2022-10-23T21:18:27.542Z,74900.59
2022-10-23T21:28:37.967Z,74914.78
2022-10-23T21:38:44.225Z,74916.78
2022-10-23T21:48:46.288Z,74928.94
2022-10-23T21:58:53.976Z,74928.94
2022-10-23T22:09:00.279Z,74953.22
2022-10-23T22:19:02.467Z,74969.41
2022-10-23T22:29:09.517Z,74965.34
2022-10-23T22:39:14.185Z,74961.31
2022-10-23T22:49:16.834Z,74953.22
2022-10-23T22:59:21.337Z,74961.31
2022-10-23T23:09:23.472Z,74959.28
2022-10-23T23:19:26.826Z,74945.13
2022-10-23T23:29:34.399Z,74928.94
2022-10-23T23:39:38.765Z,74930.97
2022-10-23T23:49:40.756Z,74935.00
2022-10-23T23:59:42.742Z,74935.00
